Latest Coastal Weather Observations for Gladstone

IDQ60701

Issued at 2:42 am EST Friday 5 March 2021 (issued every 10 minutes, with the page automatically refreshed every 10 minutes)

About coastal observations | Map of coastal stations | Coastal observations for QLD | Marine services | Other Formats
Station Details ID: 039123 Name: GLADSTONE RADAR Lat: -23.86 Lon: 151.26 Height: 74.5 m
Data from the previous 72 hours. | See also: Recent months at Gladstone
Date/Time
EST
Wind Sea
Height
m
Swell Vis
km
Cloud Weather Temp
°C
Press
MSL
hPa
Rain since
9am
mm
Dir  Spd
kts
Gust
kts
Height
m
Period
s
Dir
05/02:30am S 7 11 - - - - - - - 21.7 1006.8 0.0
05/02:00am S 7 10 - - - - - - - 22.0 1006.9 0.0
05/01:30am SSE 8 13 - - - - - - - 22.2 1007.3 0.0
05/01:00am SSE 9 13 - - - - - - - 22.3 1007.5 0.0
05/12:30am SSE 9 13 - - - - - - - 22.3 1007.8 0.0
05/12:00am SSE 8 14 - - - - - - - 22.5 1008.0 0.0
 
Date/Time
EST
Wind Sea
Height
m
Swell Vis
km
Cloud Weather Temp
°C
Press
MSL
hPa
Rain since
9am
mm
Dir  Spd
kts
Gust
kts
Height
m
Period
s
Dir
04/11:30pm SSE 8 12 - - - - - - - 22.9 1008.3 0.0
04/11:00pm SE 8 12 - - - - - - - 23.4 1008.4 0.0
04/10:30pm ESE 12 18 - - - - - - - 23.9 1008.2 0.0
04/10:00pm ESE 11 17 - - - - - - - 24.0 1008.4 0.0
04/09:30pm SE 11 18 - - - - - - - 24.5 1008.5 0.0
04/09:01pm ESE 17 27 - - - - - - - 25.1 1008.1 0.0
04/09:00pm ESE 17 24 - - - - - - - 24.9 1008.1 0.0
04/08:30pm ESE 20 28 - - - - - - - 25.0 1007.8 0.0
04/08:01pm ESE 20 30 - - - - - - - 25.0 1007.7 0.0
04/08:00pm ESE 19 28 - - - - - - - 25.1 1007.7 0.0
04/07:30pm ESE 20 31 - - - - - - - 25.3 1007.4 0.0
04/07:04pm ESE 19 29 - - - - - - - 25.1 1007.3 0.0
04/07:00pm ESE 19 27 - - - - - - - 25.1 1007.4 0.0
04/06:30pm ESE 19 27 - - - - - - - 25.3 1007.0 0.0
04/06:03pm E 17 27 - - - - - - - 24.8 1007.1 0.0
04/06:00pm E 19 27 - - - - - - - 24.8 1007.0 0.0
04/05:30pm E 21 32 - - - - - - - 25.5 1006.6 0.0
04/05:10pm ESE 19 29 - - - - - - - 26.0 1006.6 0.0
04/05:00pm ESE 19 25 - - - - - - - 26.1 1006.4 0.0
04/04:30pm ESE 16 26 - - - - - - - 26.2 1006.5 0.0
04/04:21pm ESE 15 28 - - - - - - - 26.0 1006.5 0.0
04/04:00pm ESE 11 19 - - - - - - - 25.7 1006.6 0.0
04/03:30pm SE 12 20 - - - - - - - 25.2 1006.9 0.0
04/03:00pm SE 15 26 - - - - - - - 25.4 1006.8 0.0
04/02:32pm ESE 20 31 - - - - - - - 25.8 1006.6 0.0
04/02:30pm ESE 19 27 - - - - - - - 26.1 1006.7 0.0
04/02:00pm ESE 19 26 - - - - - - - 26.1 1006.8 0.0
04/01:30pm ESE 18 26 - - - - - - - 26.4 1007.1 0.0
04/01:19pm ESE 15 25 - - - - - - - 25.8 1007.4 0.0
04/01:00pm ESE 11 24 - - - - - - - 25.3 1007.5 0.0
04/12:30pm ESE 18 29 - - - - - - - 23.8 1007.9 0.0
04/12:00pm ESE 24 34 - - - - - - - 23.6 1007.7 0.0
04/11:51am ESE 16 27 - - - - - - - 26.1 1007.7 0.0
04/11:30am ESE 14 22 - - - - - - - 26.7 1008.1 0.0
04/11:00am ESE 11 23 - - - - - - - 24.5 1008.2 0.0
04/10:30am ESE 13 22 - - - - - - - 26.5 1008.3 0.0
04/10:00am ESE 12 20 - - - - - - - 25.8 1008.5 0.0
04/09:30am SE 12 17 - - - - - - - 25.7 1008.5 0.0
04/09:00am SE 11 18 - - - - - - - 25.2 1008.6 0.0
04/08:30am SE 11 18 - - - - - - - 24.7 1008.4 0.0
04/08:00am SE 11 20 - - - - - - - 24.4 1008.1 0.0
04/07:30am SSE 11 17 - - - - - - - 23.7 1007.8 0.0
04/07:00am SSE 11 19 - - - - - - - 22.9 1007.6 0.0
04/06:30am SSE 12 19 - - - - - - - 22.5 1007.3 0.0
04/06:00am SSE 12 18 - - - - - - - 21.9 1007.1 0.0
04/05:30am SE 14 22 - - - - - - - 21.6 1007.0 0.0
04/05:00am SSE 12 20 - - - - - - - 22.0 1007.1 0.0
04/04:30am SSE 12 19 - - - - - - - 22.0 1006.6 0.0
04/04:00am SSE 11 16 - - - - - - - 22.5 1006.4 0.0
04/03:30am SSE 8 13 - - - - - - - 22.8 1006.5 0.0
04/03:00am SE 8 12 - - - - - - - 22.9 1006.4 0.0
04/02:30am SE 9 15 - - - - - - - 24.1 1006.4 0.0
04/02:00am SE 12 21 - - - - - - - 24.1 1006.5 0.0
04/01:30am SSE 7 11 - - - - - - - 24.5 1006.8 0.0
04/01:00am SE 10 17 - - - - - - - 24.7 1007.0 0.0
04/12:30am SE 13 19 - - - - - - - 24.7 1007.2 0.0
04/12:00am ESE 11 17 - - - - - - - 25.4 1007.3 0.0
 
Date/Time
EST
Wind Sea
Height
m
Swell Vis
km
Cloud Weather Temp
°C
Press
MSL
hPa
Rain since
9am
mm
Dir  Spd
kts
Gust
kts
Height
m
Period
s
Dir
03/11:30pm ESE 16 24 - - - - - - - 26.3 1007.2 0.0
03/11:00pm E 12 21 - - - - - - - 26.1 1007.5 0.0
03/10:30pm ESE 15 21 - - - - - - - 26.1 1007.6 0.0
03/10:00pm E 13 19 - - - - - - - 25.8 1007.8 0.0
03/09:30pm E 17 23 - - - - - - - 25.8 1007.7 0.0
03/09:00pm E 13 19 - - - - - - - 26.4 1007.8 0.0
03/08:30pm E 15 20 - - - - - - - 26.5 1007.7 0.0
03/08:00pm E 17 21 - - - - - - - 26.5 1007.3 0.0
03/07:30pm E 15 20 - - - - - - - 26.5 1007.3 0.0
03/07:00pm E 16 22 - - - - - - - 26.6 1006.8 0.0
03/06:30pm E 16 21 - - - - - - - 26.7 1006.5 0.0
03/06:00pm E 15 21 - - - - - - - 26.9 1006.3 0.0
03/05:30pm E 14 22 - - - - - - - 27.3 1005.8 0.0
03/05:00pm E 16 23 - - - - - - - 28.0 1005.7 0.0
03/04:30pm ENE 15 21 - - - - - - - 28.9 1005.6 0.0
03/04:00pm ENE 14 21 - - - - - - - 30.1 1005.5 0.0
03/03:30pm ENE 15 21 - - - - - - - 30.6 1005.6 0.0
03/03:00pm ENE 14 24 - - - - - - - 30.6 1005.7 0.0
03/02:30pm ENE 14 21 - - - - - - - 30.9 1006.1 0.0
03/02:00pm ENE 15 20 - - - - - - - 31.6 1006.4 0.0
03/01:30pm ENE 13 19 - - - - - - - 31.4 1006.9 0.0
03/01:00pm ENE 14 20 - - - - - - - 32.5 1007.2 0.0
03/12:30pm ENE 15 21 - - - - - - - 31.5 1007.5 0.0
03/12:00pm ENE 13 19 - - - - - - - 32.0 1007.8 0.0
03/11:30am ENE 12 17 - - - - - - - 32.0 1008.3 0.0
03/11:00am E 12 19 - - - - - - - 31.7 1008.7 0.0
03/10:30am E 12 17 - - - - - - - 31.2 1008.8 0.0
03/10:00am E 12 19 - - - - - - - 30.7 1009.4 0.0
03/09:30am E 11 21 - - - - - - - 30.2 1009.3 0.0
03/09:00am ESE 11 16 - - - - - - - 27.9 1009.3 0.0
03/08:30am ESE 10 17 - - - - - - - 27.5 1009.2 0.0
03/08:00am SE 9 14 - - - - - - - 27.3 1009.2 0.0
03/07:30am SSE 7 13 - - - - - - - 26.2 1008.9 0.0
03/07:00am SSE 9 15 - - - - - - - 25.2 1008.8 0.0
03/06:30am SSE 8 14 - - - - - - - 24.6 1008.5 0.0
03/06:00am SSE 9 12 - - - - - - - 24.1 1008.4 0.0
03/05:30am SSE 7 12 - - - - - - - 24.0 1008.0 0.0
03/05:00am SE 8 13 - - - - - - - 24.2 1007.7 0.0
03/04:30am SE 8 12 - - - - - - - 24.4 1007.3 0.0
03/04:00am SSE 8 13 - - - - - - - 24.5 1007.3 0.0
03/03:30am SSE 8 13 - - - - - - - 24.5 1007.0 0.0
03/03:00am SSE 8 11 - - - - - - - 24.6 1006.9 0.0
03/02:30am SE 8 12 - - - - - - - 24.6 1007.1 0.0
03/02:00am SSE 8 12 - - - - - - - 24.4 1007.2 0.0
03/01:30am SE 7 9 - - - - - - - 24.5 1007.4 0.0
03/01:00am SE 7 10 - - - - - - - 24.7 1007.2 0.0
03/12:30am SE 5 8 - - - - - - - 25.0 1007.5 0.0
03/12:00am ESE 7 10 - - - - - - - 25.3 1007.5 0.0
 
Date/Time
EST
Wind Sea
Height
m
Swell Vis
km
Cloud Weather Temp
°C
Press
MSL
hPa
Rain since
9am
mm
Dir  Spd
kts
Gust
kts
Height
m
Period
s
Dir
02/11:30pm ESE 5 8 - - - - - - - 25.3 1007.5 0.0
02/11:00pm ESE 7 9 - - - - - - - 25.5 1007.7 0.0
02/10:30pm ESE 8 11 - - - - - - - 25.6 1007.9 0.0
02/10:00pm ESE 9 15 - - - - - - - 25.8 1008.2 0.0
02/09:30pm ESE 7 10 - - - - - - - 25.9 1007.9 0.0
02/09:00pm ESE 10 14 - - - - - - - 26.2 1007.6 0.0
02/08:30pm ESE 10 14 - - - - - - - 26.3 1007.6 0.0
02/08:00pm E 11 14 - - - - - - - 26.2 1007.3 0.0
02/07:30pm E 11 15 - - - - - - - 26.3 1007.0 0.0
02/07:00pm E 11 15 - - - - - - - 26.4 1006.7 0.0
02/06:30pm ENE 12 17 - - - - - - - 26.6 1006.3 0.0
02/06:00pm ENE 12 18 - - - - - - - 27.1 1006.3 0.0
02/05:30pm ENE 13 18 - - - - - - - 27.8 1006.1 0.0
02/05:00pm ENE 12 17 - - - - - - - 28.4 1006.0 0.0
02/04:30pm ENE 13 19 - - - - - - - 29.1 1005.9 0.0
02/04:00pm ENE 12 16 - - - - - - - 30.0 1005.9 0.0
02/03:30pm ENE 13 18 - - - - - - - 30.5 1006.1 0.0
02/03:00pm E 13 17 - - - - - - - 31.6 1006.3 0.0
02/02:30pm ENE 13 19 - - - - - - - 31.2 1006.5 0.0
02/02:00pm ENE 11 18 - - - - - - - 32.3 1006.6 0.0
02/01:30pm ENE 11 17 - - - - - - - 32.6 1006.9 0.0
02/01:00pm E 11 16 - - - - - - - 31.9 1007.3 0.0
02/12:30pm ENE 13 17 - - - - - - - 32.1 1007.5 0.0
02/12:00pm E 10 17 - - - - - - - 31.9 1007.9 0.0
02/11:30am ESE 11 18 - - - - - - - 30.7 1008.3 0.0
02/11:00am ESE 12 17 - - - - - - - 31.3 1008.6 0.0
02/10:30am ESE 12 18 - - - - - - - 29.8 1008.9 0.0
02/10:00am ESE 13 19 - - - - - - - 28.8 1008.9 0.0
02/09:30am ESE 11 16 - - - - - - - 27.9 1009.1 0.0
02/09:00am SE 9 14 - - - - - - - 27.0 1009.0 0.0
02/08:30am SE 8 11 - - - - - - - 26.8 1009.0 0.0
02/08:00am SE 7 11 - - - - - - - 26.7 1008.8 0.0
02/07:30am SSE 7 10 - - - - - - - 25.9 1008.7 0.0
02/07:00am S 7 12 - - - - - - - 24.9 1008.2 0.0
02/06:30am S 8 11 - - - - - - - 24.7 1008.0 0.0
02/06:00am SE 7 9 - - - - - - - 24.7 1007.4 0.0
02/05:30am S 8 11 - - - - - - - 24.7 1007.2 0.0
02/05:00am S 7 10 - - - - - - - 24.7 1006.7 0.0
02/04:30am S 7 10 - - - - - - - 24.7 1006.5 0.0
02/04:00am SSE 7 11 - - - - - - - 24.8 1006.0 0.0
02/03:30am SSE 7 11 - - - - - - - 24.8 1005.9 0.0
02/03:00am SE 7 12 - - - - - - - 25.0 1006.3 0.0

Other formats

Comma delimited format used in spreadsheet applications
http://www.bom.gov.au/fwo/IDQ60701/IDQ60701.94380.axf

JavaScript Object Notation format (JSON) in row-major order
http://www.bom.gov.au/fwo/IDQ60701/IDQ60701.94380.json

Data quality

Most of these data are generated automatically and are frequently updated. Quality checks on data are not normally performed. It is possible for incorrect values to appear. Refer to information at About Latest Weather Observations and please check the disclaimer before using these data.